^^
MeteoGriva-Weather Station Historical Data
Daily Summary for August 10, 2020 Units:  English    Metric   Both
Daily Weekly Monthly Yearly Custom
  High: Low: Average:
Temperature: 51.6 °F 35.1 °F 42.4 °F
Dew Point: 34 °F 23.9 °F 28.6 °F
Humidity: 65% 47.1% 58%
Wind Speed: 1.2mph 0mph 0.1mph
Wind Gust: 7.6mph - -
Wind- - SSE
Pressure: 30.3 in 30.2 in -
Precipitation: 0 in    
Historical Graphs
 
 
Tabular Data for August 10, 2020
Time Temperature Dew Point Pressure Wind Wind Speed Wind Gust Humidity Rainfall Rate (Hourly) solar
00:04 37 °F 25.2 °F 30.3 in Calm     62.1% 0 in 0 W/m2
00:09 37 °F 25.3 °F 30.3 in Calm     62.4% 0 in 0 W/m2
00:14 37 °F 25.3 °F 30.3 in Calm     62.4% 0 in 0 W/m2
00:19 36.9 °F 25.5 °F 30.3 in Calm     63% 0 in 0 W/m2
00:24 36.9 °F 25.5 °F 30.3 in Calm     63% 0 in 0 W/m2
00:29 36.9 °F 25.7 °F 30.3 in Calm     63.3% 0 in 0 W/m2
00:34 36.7 °F 25.3 °F 30.3 in Calm     63% 0 in 0 W/m2
00:39 36.5 °F 25.2 °F 30.3 in Calm     63% 0 in 0 W/m2
00:44 36.5 °F 25.2 °F 30.3 in Calm     63% 0 in 0 W/m2
00:49 36.5 °F 25.2 °F 30.3 in Calm     63% 0 in 0 W/m2
00:54 36.5 °F 25.2 °F 30.3 in Calm     63% 0 in 0 W/m2
00:59 36.3 °F 24.8 °F 30.3 in Calm     62.3% 0 in 0 W/m2
01:04 36.3 °F 24.6 °F 30.2 in Calm     62% 0 in 0 W/m2
01:09 36.3 °F 24.6 °F 30.2 in Calm     62% 0 in 0 W/m2
01:14 36.5 °F 24.8 °F 30.2 in Calm     62.4% 0 in 0 W/m2
01:19 36.7 °F 24.8 °F 30.2 in Calm     61.7% 0 in 0 W/m2
01:24 36.7 °F 25.2 °F 30.2 in Calm     62.4% 0 in 0 W/m2
01:29 36.5 °F 25.5 °F 30.2 in Calm     63.9% 0 in 0 W/m2
01:34 36.1 °F 25.3 °F 30.2 in Calm     64.8% 0 in 0 W/m2
01:39 35.1 °F 24.4 °F 30.2 in Calm     65% 0 in 0 W/m2
01:44 35.1 °F 24.4 °F 30.2 in Calm     65% 0 in 0 W/m2
01:49 35.1 °F 24.4 °F 30.2 in Calm     65% 0 in 0 W/m2
01:54 35.2 °F 24.4 °F 30.2 in Calm     65% 0 in 0 W/m2
01:59 35.2 °F 24.6 °F 30.2 in Calm     65% 0 in 0 W/m2
02:04 35.2 °F 24.6 °F 30.2 in Calm     65% 0 in 0 W/m2
02:09 35.2 °F 24.6 °F 30.2 in Calm     64.8% 0 in 0 W/m2
02:14 35.2 °F 24.6 °F 30.3 in Calm     65% 0 in 0 W/m2
02:19 35.4 °F 24.4 °F 30.2 in Calm     64.1% 0 in 0 W/m2
02:24 35.4 °F 24.4 °F 30.3 in Calm     64% 0 in 0 W/m2
02:29 35.4 °F 24.6 °F 30.3 in Calm     64.3% 0 in 0 W/m2
02:34 35.4 °F 24.4 °F 30.3 in Calm     64% 0 in 0 W/m2
02:39 35.8 °F 24.8 °F 30.3 in Calm     64% 0 in 0 W/m2
02:44 35.8 °F 24.8 °F 30.3 in Calm     64% 0 in 0 W/m2
02:49 35.8 °F 24.6 °F 30.3 in Calm     63.7% 0 in 0 W/m2
02:54 35.8 °F 24.3 °F 30.3 in Calm     62.8% 0 in 0 W/m2
02:59 36.3 °F 24.8 °F 30.3 in Calm     62.6% 0 in 0 W/m2
03:04 36.3 °F 25 °F 30.3 in Calm     63.2% 0 in 0 W/m2
03:09 36.3 °F 25 °F 30.3 in Calm     63% 0 in 0 W/m2
03:14 36.3 °F 25 °F 30.3 in Calm     63% 0 in 0 W/m2
03:19 36.3 °F 25 °F 30.3 in Calm     63% 0 in 0 W/m2
03:24 36.3 °F 24.6 °F 30.3 in Calm     62% 0 in 0 W/m2
03:29 36.5 °F 24.4 °F 30.3 in Calm     61.4% 0 in 0 W/m2
03:34 36.5 °F 24.3 °F 30.2 in Calm     61% 0 in 0 W/m2
03:39 37.2 °F 24.8 °F 30.3 in Calm     60.3% 0 in 0 W/m2
03:44 37 °F 25 °F 30.2 in Calm     61.3% 0 in 0 W/m2
03:49 37 °F 25 °F 30.2 in Calm     61.3% 0 in 0 W/m2
03:54 37 °F 24.8 °F 30.2 in Calm     61% 0 in 0 W/m2
03:59 37.2 °F 25.2 °F 30.2 in Calm     61% 0 in 0 W/m2
04:04 37.2 °F 25 °F 30.2 in Calm     61% 0 in 0 W/m2
04:09 37.2 °F 24.8 °F 30.2 in Calm     60.3% 0 in 0 W/m2
04:14 37.4 °F 24.8 °F 30.2 in Calm     60.1% 0 in 0 W/m2
04:19 37.6 °F 25 °F 30.2 in Calm     60% 0 in 0 W/m2
04:24 37.6 °F 25 °F 30.2 in Calm     60% 0 in 0 W/m2
04:29 37.4 °F 25.2 °F 30.2 in Calm     60.6% 0 in 0 W/m2
04:34 37.4 °F 25.2 °F 30.2 in Calm     61.1% 0 in 0 W/m2
04:39 36.9 °F 24.6 °F 30.2 in Calm     61% 0 in 0 W/m2
04:44 36.9 °F 24.6 °F 30.2 in Calm     61% 0 in 0 W/m2
04:49 36.9 °F 24.8 °F 30.2 in Calm     61.4% 0 in 0 W/m2
04:54 36.9 °F 24.6 °F 30.2 in Calm     61.2% 0 in 0 W/m2
04:59 36.9 °F 24.6 °F 30.2 in Calm     61% 0 in 0 W/m2
05:04 36.9 °F 24.4 °F 30.2 in Calm     60.2% 0 in 0 W/m2
05:09 37 °F 24.4 °F 30.2 in Calm     60% 0 in 0 W/m2
05:14 37 °F 24.4 °F 30.2 in Calm     60% 0 in 0 W/m2
05:19 37 °F 24.4 °F 30.2 in Calm     60% 0 in 0 W/m2
05:24 37 °F 24.4 °F 30.2 in Calm     60% 0 in 0 W/m2
05:29 37 °F 24.4 °F 30.2 in Calm     60% 0 in 0 W/m2
05:34 37 °F 24.4 °F 30.2 in Calm     60.2% 0 in 0 W/m2
05:39 37.4 °F 24.6 °F 30.2 in Calm     59.8% 0 in 0 W/m2
05:44 37.4 °F 24.4 °F 30.2 in Calm     59% 0 in 0 W/m2
05:49 37.2 °F 24.4 °F 30.2 in Calm     59.3% 0 in 0 W/m2
05:54 37.2 °F 24.3 °F 30.2 in Calm     59% 0 in 0 W/m2
05:59 37 °F 24.4 °F 30.2 in Calm     59.8% 0 in 0 W/m2
06:04 36.9 °F 24.3 °F 30.2 in Calm     60% 0 in 0 W/m2
06:09 36.9 °F 24.4 °F 30.2 in Calm     60.7% 0 in 0 W/m2
06:14 36.9 °F 24.4 °F 30.2 in Calm     60.7% 0 in 0 W/m2
06:19 36.7 °F 24.4 °F 30.2 in Calm     60.9% 0 in 0 W/m2
06:24 36.9 °F 24.4 °F 30.2 in Calm     60.8% 0 in 0 W/m2
06:29 36.9 °F 24.4 °F 30.2 in Calm     60.3% 0 in 0 W/m2
06:34 36.9 °F 24.3 °F 30.2 in Calm     59.8% 0 in 0 W/m2
06:39 37.8 °F 24.4 °F 30.2 in Calm     58.4% 0 in 0 W/m2
06:44 37.8 °F 24.8 °F 30.2 in Calm     59% 0 in 0 W/m2
06:49 37.8 °F 25 °F 30.2 in Calm     59.4% 0 in 0 W/m2
06:54 37.8 °F 25.2 °F 30.2 in Calm     60% 0 in 0 W/m2
06:59 37.2 °F 24.8 °F 30.2 in Calm     60.6% 0 in 0 W/m2
07:04 37 °F 24.4 °F 30.2 in Calm     60% 0 in 0 W/m2
07:09 37 °F 24.1 °F 30.2 in Calm     59% 0 in 0 W/m2
07:14 37.2 °F 24.4 °F 30.2 in Calm     59.8% 0 in 0 W/m2
07:19 37.4 °F 24.6 °F 30.2 in Calm     59.4% 0 in 0 W/m2
07:24 37.6 °F 25 °F 30.2 in Calm     60% 0 in 0 W/m2
07:29 37.6 °F 25 °F 30.2 in Calm     59.9% 0 in 0 W/m2
07:34 37.6 °F 24.6 °F 30.2 in Calm     59.1% 0 in 0 W/m2
07:39 37.6 °F 25 °F 30.2 in Calm     59.9% 0 in 0 W/m2
07:44 37.6 °F 25 °F 30.2 in Calm     59.9% 0 in 0 W/m2
07:49 37.6 °F 24.6 °F 30.2 in Calm     59.1% 0 in 0 W/m2
07:54 37.6 °F 25 °F 30.2 in Calm     60% 0 in 0 W/m2
07:59 37.2 °F 24.8 °F 30.2 in Calm     60.3% 0 in 3 W/m2
08:04 36.9 °F 24.3 °F 30.2 in Calm     60% 0 in 6 W/m2
08:09 36.9 °F 24.3 °F 30.2 in Calm     59.9% 0 in 10 W/m2
08:14 37 °F 24.1 °F 30.2 in Calm     58.9% 0 in 17 W/m2
08:19 38.3 °F 24.8 °F 30.2 in Calm     57.9% 0 in 21 W/m2
08:24 39 °F 25.2 °F 30.2 in Calm     57% 0 in 23 W/m2
08:29 39 °F 25.7 °F 30.2 in Calm     58.6% 0 in 29 W/m2
08:34 39 °F 25.9 °F 30.2 in Calm     59% 0 in 28 W/m2
08:39 39.2 °F 25.9 °F 30.2 in Calm     58.7% 0 in 21 W/m2
08:44 39 °F 25.9 °F 30.2 in Calm     58.7% 0 in 44 W/m2
08:49 39.2 °F 24.8 °F 30.2 in Calm     55.7% 0 in 50 W/m2
08:54 39.7 °F 23.9 °F 30.2 in Calm     52.7% 0 in 54 W/m2
08:59 42.6 °F 25 °F 30.2 in Calm     49.2% 0 in 59 W/m2
09:04 45.1 °F 27.9 °F 30.3 in Calm     50.3% 0 in 62 W/m2
09:09 45 °F 27.7 °F 30.2 in Calm     50.3% 0 in 66 W/m2
09:14 45 °F 27.5 °F 30.3 in Calm     50.2% 0 in 67 W/m2
09:19 45.5 °F 27.9 °F 30.2 in Calm     50% 0 in 68 W/m2
09:24 46 °F 28.2 °F 30.2 in Calm     49.8% 0 in 70 W/m2
09:29 46.2 °F 27.5 °F 30.2 in Calm     47.6% 0 in 72 W/m2
09:34 46.6 °F 27.5 °F 30.3 in Calm     47.1% 0 in 74 W/m2
09:39 45.5 °F 27.9 °F 30.3 in Calm     50.1% 0 in 75 W/m2
09:44 43.7 °F 27.7 °F 30.2 in Calm     52.8% 0 in 76 W/m2
09:49 43.5 °F 27.9 °F 30.3 in Calm     53.6% 0 in 76 W/m2
09:54 43.7 °F 27 °F 30.2 in Calm     51.4% 0 in 78 W/m2
09:59 43.3 °F 27.7 °F 30.3 in Calm     53.9% 0 in 78 W/m2
10:04 42.6 °F 27.1 °F 30.3 in Calm     54.2% 0 in 79 W/m2
10:09 42.8 °F 27.3 °F 30.3 in Calm     54.2% 0 in 80 W/m2
10:14 43.2 °F 26.8 °F 30.3 in Calm     52.2% 0 in 81 W/m2
10:19 43.9 °F 27.7 °F 30.3 in Calm     52.9% 0 in 82 W/m2
10:24 44.1 °F 28.4 °F 30.3 in Calm     54% 0 in 82 W/m2
10:29 44.1 °F 28.6 °F 30.3 in Calm     54.2% 0 in 82 W/m2
10:34 44.2 °F 28.4 °F 30.3 in Calm     53.6% 0 in 83 W/m2
10:39 45.7 °F 29.1 °F 30.3 in Calm   2.5 mph 52.2% 0 in 84 W/m2
10:44 47.5 °F 30.6 °F 30.3 in SSE 0.1 mph 2.5 mph 51.7% 0 in 84 W/m2
10:49 47.5 °F 30.2 °F 30.3 in Calm     51% 0 in 83 W/m2
10:54 47.5 °F 30.2 °F 30.3 in Calm     50.9% 0 in 84 W/m2
10:59 47.8 °F 30.7 °F 30.2 in SSE 0.1 mph 2.5 mph 51.3% 0 in 85 W/m2
11:04 48.4 °F 30.4 °F 30.2 in Calm     49.7% 0 in 87 W/m2
11:09 48.6 °F 30.6 °F 30.2 in SSE 0.1 mph 2.5 mph 49.7% 0 in 89 W/m2
11:14 48.7 °F 30.9 °F 30.2 in South 0.1 mph 4.9 mph 50.1% 0 in 91 W/m2
11:19 48.9 °F 31.1 °F 30.2 in SSE 0.1 mph 4.9 mph 50% 0 in 94 W/m2
11:24 49.3 °F 31.3 °F 30.2 in Calm     49.7% 0 in 97 W/m2
11:29 49.3 °F 31.6 °F 30.2 in SE 0.4 mph 2.5 mph 50.3% 0 in 100 W/m2
11:34 49.3 °F 32 °F 30.2 in Calm   2.5 mph 51% 0 in 103 W/m2
11:39 49.3 °F 32 °F 30.2 in SSE 0.4 mph 4.9 mph 51% 0 in 106 W/m2
11:44 49.3 °F 32 °F 30.2 in ESE 0.1 mph 4.9 mph 51.2% 0 in 110 W/m2
11:49 49.1 °F 32.5 °F 30.2 in ESE 0.4 mph 2.5 mph 52.6% 0 in 109 W/m2
11:54 48.9 °F 32.4 °F 30.2 in ESE 0.3 mph 2.5 mph 52.4% 0 in 83 W/m2
11:59 48.6 °F 32.5 °F 30.2 in SE 0.1 mph 2.5 mph 53.4% 0 in 82 W/m2
12:04 47.8 °F 32.2 °F 30.2 in South 0.2 mph 2.5 mph 54.2% 0 in 81 W/m2
12:09 47.8 °F 31.8 °F 30.2 in ESE 0.6 mph 4.9 mph 53.8% 0 in 81 W/m2
12:14 47.7 °F 31.6 °F 30.2 in South 1.2 mph 4.9 mph 53.7% 0 in 87 W/m2
12:19 47.8 °F 31.5 °F 30.2 in SSE 0.8 mph 4.9 mph 53% 0 in 126 W/m2
12:24 48.2 °F 31.8 °F 30.2 in SSE 0.8 mph 4.9 mph 53% 0 in 150 W/m2
12:29 48.2 °F 32 °F 30.2 in ESE 0.6 mph 4.9 mph 53.6% 0 in 159 W/m2
12:34 48.2 °F 31.8 °F 30.2 in SE 0.4 mph 4.9 mph 52.8% 0 in 168 W/m2
12:39 48.4 °F 32 °F 30.2 in South 0.8 mph 7.6 mph 53% 0 in 176 W/m2
12:44 49.3 °F 32.9 °F 30.2 in ENE 0.1 mph 7.6 mph 52.9% 0 in 188 W/m2
12:49 49.3 °F 32.9 °F 30.2 in SSW 0.5 mph 4.9 mph 53% 0 in 198 W/m2
12:54 49.3 °F 33.3 °F 30.2 in ESE 0.4 mph 7.6 mph 53.8% 0 in 209 W/m2
12:59 49.1 °F 33.6 °F 30.2 in SE 0.7 mph 4.9 mph 54.9% 0 in 219 W/m2
13:04 48.9 °F 33.3 °F 30.2 in Calm   4.9 mph 54% 0 in 229 W/m2
13:09 49.1 °F 33.3 °F 30.2 in SSE 1.1 mph 4.9 mph 54% 0 in 242 W/m2
13:14 49.1 °F 33.4 °F 30.2 in South 0.1 mph 4.9 mph 54.7% 0 in 250 W/m2
13:19 48.9 °F 33.6 °F 30.2 in South 0.3 mph 4.9 mph 55.3% 0 in 260 W/m2
13:24 49.1 °F 33.6 °F 30.2 in Calm   2.5 mph 54.7% 0 in 269 W/m2
13:29 49.3 °F 33.3 °F 30.2 in Calm     54.1% 0 in 277 W/m2
13:34 49.1 °F 33.8 °F 30.2 in South 0.9 mph 4.9 mph 55.2% 0 in 283 W/m2
13:39 49.1 °F 33.8 °F 30.2 in SSE 0.2 mph 2.5 mph 55.3% 0 in 288 W/m2
13:44 49.5 °F 33.6 °F 30.2 in Calm     54.3% 0 in 294 W/m2
13:49 49.5 °F 33.1 °F 30.2 in South 0.1 mph 2.5 mph 53% 0 in 297 W/m2
13:54 49.6 °F 33.4 °F 30.2 in ESE 0.2 mph 2.5 mph 53.2% 0 in 298 W/m2
13:59 49.6 °F 33.6 °F 30.2 in South 0.7 mph 7.6 mph 54% 0 in 299 W/m2
14:04 50 °F 33.8 °F 30.2 in Calm   4.9 mph 53.7% 0 in 300 W/m2
14:09 50 °F 33.8 °F 30.2 in South 0.6 mph 4.9 mph 53.6% 0 in 300 W/m2
14:14 50 °F 33.6 °F 30.2 in SE 0.2 mph 4.9 mph 53% 0 in 299 W/m2
14:19 50.2 °F 33.4 °F 30.2 in Calm   4.9 mph 52.3% 0 in 299 W/m2
14:24 50.2 °F 33.3 °F 30.2 in South 0.6 mph 4.9 mph 52% 0 in 298 W/m2
14:29 50.2 °F 33.1 °F 30.2 in Calm   4.9 mph 51.7% 0 in 296 W/m2
14:34 50.4 °F 32.9 °F 30.2 in Calm   2.5 mph 51.2% 0 in 294 W/m2
14:39 50.4 °F 33.3 °F 30.2 in SSE 0.1 mph 2.5 mph 51.9% 0 in 290 W/m2
14:44 50.5 °F 33.1 °F 30.2 in ESE 0.5 mph 4.9 mph 51% 0 in 291 W/m2
14:49 50.5 °F 33.1 °F 30.2 in SE 0.2 mph 2.5 mph 50.8% 0 in 285 W/m2
14:54 50.7 °F 32.4 °F 30.2 in Calm   2.5 mph 49.4% 0 in 281 W/m2
14:59 51.1 °F 32.5 °F 30.2 in Calm     49% 0 in 280 W/m2
15:04 51.6 °F 33.8 °F 30.2 in Calm     50.2% 0 in 277 W/m2
15:09 51.6 °F 33.4 °F 30.2 in Calm     49.7% 0 in 271 W/m2
15:14 51.6 °F 33.1 °F 30.2 in Calm   4.9 mph 49% 0 in 266 W/m2
15:19 51.3 °F 34 °F 30.2 in Calm   2.5 mph 51.4% 0 in 258 W/m2
15:24 49.5 °F 32.5 °F 30.2 in Calm     52% 0 in 251 W/m2
15:29 49.1 °F 32 °F 30.2 in Calm     51.6% 0 in 243 W/m2
15:34 49.1 °F 32.2 °F 30.2 in Calm     51.9% 0 in 237 W/m2
15:39 49.3 °F 32.5 °F 30.2 in Calm     52.3% 0 in 229 W/m2
15:44 48.9 °F 32.5 °F 30.2 in Calm     53% 0 in 219 W/m2
15:49 48.7 °F 32 °F 30.2 in Calm     52.4% 0 in 210 W/m2
15:54 48.7 °F 32 °F 30.2 in Calm     52.4% 0 in 189 W/m2
15:59 48.6 °F 32.7 °F 30.2 in Calm   2.5 mph 53.9% 0 in 56 W/m2
16:04 47.3 °F 31.6 °F 30.2 in Calm   2.5 mph 54.1% 0 in 41 W/m2
16:09 46.9 °F 31.5 °F 30.2 in Calm     54.9% 0 in 38 W/m2
16:14 46.9 °F 31.6 °F 30.2 in Calm     55.1% 0 in 35 W/m2
16:19 46.9 °F 32 °F 30.2 in Calm     56% 0 in 33 W/m2
16:24 46.4 °F 31.6 °F 30.2 in Calm     56% 0 in 30 W/m2
16:29 46 °F 31.5 °F 30.2 in Calm     56.7% 0 in 28 W/m2
16:34 46 °F 31.8 °F 30.2 in Calm     57.7% 0 in 26 W/m2
16:39 45.9 °F 32 °F 30.2 in Calm     57.9% 0 in 23 W/m2
16:44 45.5 °F 31.5 °F 30.2 in Calm     57.4% 0 in 21 W/m2
16:49 45.3 °F 31.5 °F 30.2 in Calm     58% 0 in 19 W/m2
16:54 45.3 °F 31.8 °F 30.2 in Calm     58.8% 0 in 17 W/m2
16:59 45.1 °F 31.8 °F 30.2 in Calm     59.2% 0 in 14 W/m2
17:04 44.6 °F 31.3 °F 30.2 in Calm     59.3% 0 in 11 W/m2
17:09 44.4 °F 30.9 °F 30.2 in Calm     59% 0 in 8 W/m2
17:14 44.2 °F 31.1 °F 30.2 in Calm     59.4% 0 in 6 W/m2
17:19 44.2 °F 30.9 °F 30.2 in Calm     59.2% 0 in 3 W/m2
17:24 44.2 °F 30.9 °F 30.2 in Calm     59.3% 0 in 0 W/m2
17:29 44.1 °F 31.5 °F 30.2 in Calm     60.7% 0 in 0 W/m2
17:34 43.9 °F 30.7 °F 30.2 in Calm     59.3% 0 in 0 W/m2
17:39 43.9 °F 30 °F 30.2 in Calm     58% 0 in 0 W/m2
17:44 44.2 °F 30 °F 30.2 in Calm     57.2% 0 in 0 W/m2
17:49 44.4 °F 29.8 °F 30.2 in Calm     56.3% 0 in 0 W/m2
17:54 44.4 °F 30 °F 30.2 in Calm     56.7% 0 in 0 W/m2
17:59 44.2 °F 30 °F 30.2 in Calm     56.8% 0 in 0 W/m2
18:04 44.4 °F 30 °F 30.2 in Calm     56.8% 0 in 0 W/m2
18:09 44.4 °F 30.2 °F 30.2 in Calm     57% 0 in 0 W/m2
18:14 44.4 °F 30.2 °F 30.2 in Calm     57% 0 in 0 W/m2
18:19 44.4 °F 30.2 °F 30.2 in Calm     56.9% 0 in 0 W/m2
18:24 44.4 °F 29.7 °F 30.2 in Calm     56% 0 in 0 W/m2
18:29 44.4 °F 29.7 °F 30.2 in Calm     56% 0 in 0 W/m2
18:34 44.4 °F 29.7 °F 30.2 in Calm     56% 0 in 0 W/m2
18:39 44.4 °F 29.7 °F 30.2 in Calm     56% 0 in 0 W/m2
18:44 44.6 °F 29.8 °F 30.2 in Calm     56% 0 in 0 W/m2
18:49 44.4 °F 30 °F 30.2 in Calm     56.6% 0 in 0 W/m2
18:54 44.4 °F 30.2 °F 30.2 in Calm     57% 0 in 0 W/m2
18:59 44.2 °F 30 °F 30.2 in Calm     57% 0 in 0 W/m2
19:04 44.2 °F 30 °F 30.2 in Calm     57% 0 in 0 W/m2
19:09 44.2 °F 30 °F 30.2 in Calm     57% 0 in 0 W/m2
19:14 44.2 °F 30 °F 30.2 in Calm     57% 0 in 0 W/m2
19:19 44.2 °F 30 °F 30.2 in Calm     57.1% 0 in 0 W/m2
19:24 44.1 °F 30.2 °F 30.2 in Calm     58% 0 in 0 W/m2
19:29 43.9 °F 30 °F 30.2 in Calm     58% 0 in 0 W/m2
19:34 43.9 °F 30.4 °F 30.2 in Calm     58.9% 0 in 0 W/m2
19:39 43.7 °F 30.6 °F 30.2 in Calm     59.4% 0 in 0 W/m2
19:44 43.5 °F 30.2 °F 30.2 in Calm     59% 0 in 0 W/m2
19:49 43.3 °F 30 °F 30.2 in Calm     59% 0 in 0 W/m2
19:54 43.3 °F 29.8 °F 30.2 in Calm     58.7% 0 in 0 W/m2
19:59 43.3 °F 30 °F 30.2 in Calm     59% 0 in 0 W/m2
20:04 43.3 °F 30 °F 30.2 in Calm     59.3% 0 in 0 W/m2
20:09 43.2 °F 30.2 °F 30.2 in Calm     60% 0 in 0 W/m2
20:14 43.2 °F 30.2 °F 30.2 in Calm     60% 0 in 0 W/m2
20:19 43.2 °F 30.2 °F 30.2 in Calm     60% 0 in 0 W/m2
20:24 43.5 °F 30.6 °F 30.2 in Calm     60% 0 in 0 W/m2
20:29 43.7 °F 30.7 °F 30.2 in Calm     60% 0 in 0 W/m2
20:34 43.7 °F 31.1 °F 30.2 in Calm     60.9% 0 in 0 W/m2
20:39 43.7 °F 31.1 °F 30.2 in Calm     61% 0 in 0 W/m2
20:44 43.5 °F 30.9 °F 30.2 in Calm     61% 0 in 0 W/m2
20:49 43.2 °F 30.6 °F 30.2 in Calm     61% 0 in 0 W/m2
20:54 43.2 °F 30.6 °F 30.2 in Calm     60.8% 0 in 0 W/m2
20:59 43.2 °F 30.2 °F 30.2 in Calm     60% 0 in 0 W/m2
21:04 43.3 °F 30.4 °F 30.2 in Calm     60% 0 in 0 W/m2
21:09 43.3 °F 30.6 °F 30.2 in Calm     60% 0 in 0 W/m2
21:14 43.5 °F 30.6 °F 30.2 in Calm     59.8% 0 in 0 W/m2
21:19 43.5 °F 30.2 °F 30.2 in Calm     59.2% 0 in 0 W/m2
21:24 43.5 °F 30.7 °F 30.2 in Calm     60.4% 0 in 0 W/m2
21:29 43.2 °F 30.6 °F 30.2 in Calm     60.9% 0 in 0 W/m2
21:34 43.3 °F 30.6 °F 30.2 in Calm     60.4% 0 in 0 W/m2
21:39 43.3 °F 30.7 °F 30.2 in Calm     61% 0 in 0 W/m2
21:44 43.3 °F 30.7 °F 30.2 in Calm     61% 0 in 0 W/m2
21:49 43 °F 30.7 °F 30.2 in Calm     61.8% 0 in 0 W/m2
21:54 43 °F 30.9 °F 30.2 in Calm     62.2% 0 in 0 W/m2
21:59 42.8 °F 31.1 °F 30.2 in Calm     63% 0 in 0 W/m2
22:04 42.8 °F 31.1 °F 30.2 in Calm     63% 0 in 0 W/m2
22:09 42.4 °F 30.7 °F 30.2 in Calm     63% 0 in 0 W/m2
22:14 42.4 °F 30.7 °F 30.2 in Calm     63% 0 in 0 W/m2
22:19 42.4 °F 30.7 °F 30.2 in Calm     63% 0 in 0 W/m2
22:24 42.4 °F 30.7 °F 30.2 in Calm     63% 0 in 0 W/m2
22:29 42.8 °F 30.9 °F 30.2 in Calm     62.7% 0 in 0 W/m2
22:34 42.8 °F 30.7 °F 30.2 in Calm     62.2% 0 in 0 W/m2
22:39 42.8 °F 30.7 °F 30.2 in Calm     62% 0 in 0 W/m2
22:44 42.8 °F 30.4 °F 30.2 in Calm     61.2% 0 in 0 W/m2
22:49 43.3 °F 30.7 °F 30.2 in Calm     61% 0 in 0 W/m2
22:54 43.3 °F 31.1 °F 30.2 in Calm     61.6% 0 in 0 W/m2
22:59 43.3 °F 31.3 °F 30.2 in Calm     62% 0 in 0 W/m2
23:04 43.2 °F 31.1 °F 30.2 in Calm     61.7% 0 in 0 W/m2
23:09 43 °F 30.4 °F 30.2 in Calm     61% 0 in 0 W/m2
23:14 43.2 °F 30.2 °F 30.2 in Calm     60.1% 0 in 0 W/m2
23:19 43.2 °F 29.8 °F 30.2 in Calm     59.1% 0 in 0 W/m2
23:24 43.3 °F 30.2 °F 30.2 in Calm     59.4% 0 in 0 W/m2
23:29 43.3 °F 30.6 °F 30.2 in Calm     60.2% 0 in 0 W/m2
23:34 43.3 °F 30.7 °F 30.2 in Calm     61% 0 in 0 W/m2
23:39 43.3 °F 30.7 °F 30.2 in Calm     61.3% 0 in 0 W/m2
23:44 43.2 °F 31.1 °F 30.2 in Calm     62% 0 in 0 W/m2
23:49 43 °F 30.9 °F 30.2 in Calm     62% 0 in 0 W/m2
23:54 43 °F 30.9 °F 30.2 in Calm     62% 0 in 0 W/m2
23:59 43 °F 30.7 °F 30.2 in Calm     61.8% 0 in 0 W/m2
Juneau County Weather
Compliments of Weather Underground - 2 mb